Time;durP1;ratioP1;P1;durP2;ratioP2;P2;SDS_P1;SDS_P2;PMS_P1;PMS_P2;Temp;Humidity;BMP_temperature;BMP_pressure;BME280_temperature;BME280_humidity;BME280_pressure;Samples;Min_cycle;Max_cycle;Signal;HPM_P1;HPM_P2
2023/09/03 00:01:54;;;;;;;19.80;17.70;;;14.30;89.30;;;;;;4977809;28;20038;-82
2023/09/03 00:04:20;;;;;;;19.35;17.42;;;14.30;89.30;;;;;;4945812;28;20038;-81
2023/09/03 00:06:46;;;;;;;19.90;17.92;;;14.30;89.40;;;;;;4946058;28;20057;-82
2023/09/03 00:09:11;;;;;;;20.17;18.02;;;14.20;89.50;;;;;;4945653;28;20505;-81
2023/09/03 00:11:37;;;;;;;20.65;18.63;;;14.20;89.60;;;;;;4977730;28;20100;-81
2023/09/03 00:14:03;;;;;;;21.63;19.30;;;14.20;89.60;;;;;;4961339;28;20050;-81
2023/09/03 00:16:29;;;;;;;22.02;19.83;;;14.20;89.70;;;;;;4945989;28;20042;-81
2023/09/03 00:18:55;;;;;;;22.35;19.35;;;14.20;89.80;;;;;;4946148;28;20559;-81
2023/09/03 00:21:21;;;;;;;21.77;19.58;;;14.10;89.80;;;;;;4961746;28;20046;-82
2023/09/03 00:23:48;;;;;;;21.63;19.52;;;14.20;90.00;;;;;;4945703;28;20046;-82
2023/09/03 00:26:21;;;;;;;23.40;20.90;;;14.20;89.90;;;;;;4945732;28;20038;-81
2023/09/03 00:28:47;;;;;;;22.73;19.27;;;14.20;89.90;;;;;;4961819;28;20108;-82
2023/09/03 00:31:13;;;;;;;21.75;19.35;;;14.20;90.00;;;;;;4961228;28;20053;-81
2023/09/03 00:33:39;;;;;;;22.48;19.27;;;14.20;90.00;;;;;;4945488;28;20042;-81
2023/09/03 00:36:08;;;;;;;20.25;18.15;;;14.20;90.00;;;;;;4945186;28;20065;-81
2023/09/03 00:38:34;;;;;;;19.67;17.63;;;14.20;90.00;;;;;;4945631;28;20046;-81
2023/09/03 00:41:00;;;;;;;20.77;18.65;;;14.20;90.00;;;;;;4945282;28;20038;-82
2023/09/03 00:43:27;;;;;;;22.25;19.92;;;14.20;89.90;;;;;;4961008;28;20146;-81
2023/09/03 00:45:53;;;;;;;22.33;19.83;;;14.20;90.00;;;;;;4960138;28;20409;-82
2023/09/03 00:48:23;;;;;;;23.35;20.95;;;14.20;90.10;;;;;;4960962;28;20045;-81
2023/09/03 00:50:51;;;;;;;20.23;18.20;;;14.30;90.00;;;;;;4977036;28;20564;-81
2023/09/03 00:53:19;;;;;;;20.50;18.40;;;14.30;90.10;;;;;;4960482;28;20090;-81
2023/09/03 00:55:46;;;;;;;22.65;17.65;;;14.30;90.20;;;;;;4960984;28;20077;-81
2023/09/03 00:58:13;;;;;;;18.90;16.90;;;14.30;90.00;;;;;;4960797;28;20039;-81
2023/09/03 01:00:39;;;;;;;18.23;16.35;;;14.30;90.10;;;;;;4977064;28;20048;-81
2023/09/03 01:03:05;;;;;;;18.95;17.05;;;14.40;90.10;;;;;;4960628;28;20409;-81
2023/09/03 01:05:31;;;;;;;19.70;17.80;;;14.30;90.10;;;;;;4960767;28;20101;-81
2023/09/03 01:07:59;;;;;;;18.92;17.00;;;14.40;90.00;;;;;;4960652;28;20060;-81
2023/09/03 01:10:38;;;;;;;18.45;16.73;;;14.40;90.00;;;;;;4960734;28;20070;-81
2023/09/03 01:13:31;;;;;;;20.98;18.77;;;14.40;90.20;;;;;;4960586;28;20073;-81
2023/09/03 01:16:02;;;;;;;25.77;21.73;;;14.30;90.30;;;;;;4953015;28;20058;-81
2023/09/03 01:18:29;;;;;;;21.33;19.02;;;14.30;90.10;;;;;;4960629;28;20046;-80
2023/09/03 01:21:11;;;;;;;20.33;18.13;;;14.30;90.30;;;;;;4960758;28;20379;-81
2023/09/03 01:23:42;;;;;;;20.30;16.95;;;14.20;90.50;;;;;;4976585;28;20038;-80
2023/09/03 01:26:55;;;;;;;20.73;17.98;;;14.30;90.60;;;;;;4960429;28;20497;-81
2023/09/03 01:29:22;;;;;;;19.75;17.15;;;14.30;91.00;;;;;;4904353;28;20138;-81
2023/09/03 01:31:48;;;;;;;23.95;19.02;;;14.30;90.70;;;;;;4963650;28;20089;-81
2023/09/03 01:34:15;;;;;;;21.00;17.98;;;14.30;90.80;;;;;;4985738;28;20065;-81
2023/09/03 01:36:41;;;;;;;19.88;17.70;;;14.30;90.80;;;;;;4981207;28;20135;-82
2023/09/03 01:39:07;;;;;;;22.10;17.52;;;14.40;90.80;;;;;;4970010;28;20026;-82
2023/09/03 01:41:34;;;;;;;18.92;16.92;;;14.40;90.80;;;;;;4962305;28;20046;-82
2023/09/03 01:44:02;;;;;;;19.45;16.48;;;14.40;90.80;;;;;;4981644;28;20050;-82
2023/09/03 01:46:49;;;;;;;18.58;16.63;;;14.30;90.70;;;;;;4985453;28;20042;-82
2023/09/03 01:49:30;;;;;;;19.00;17.00;;;14.30;90.80;;;;;;5002161;28;20034;-82
2023/09/03 01:52:37;;;;;;;19.70;15.73;;;14.30;90.70;;;;;;5002076;28;20026;-82
2023/09/03 01:55:07;;;;;;;20.33;16.50;;;14.30;90.70;;;;;;4930649;28;20055;-82
2023/09/03 01:57:41;;;;;;;18.30;16.40;;;14.20;90.60;;;;;;4963805;28;20133;-82
2023/09/03 02:00:18;;;;;;;16.52;14.88;;;14.20;90.60;;;;;;4980630;28;20494;-82
2023/09/03 02:02:47;;;;;;;17.05;13.98;;;14.20;90.50;;;;;;4963971;28;20042;-81
2023/09/03 02:05:14;;;;;;;16.25;14.52;;;14.20;90.40;;;;;;4964044;28;20077;-81
2023/09/03 02:07:41;;;;;;;16.92;15.20;;;14.20;90.40;;;;;;4963805;28;20042;-81
2023/09/03 02:10:07;;;;;;;17.40;15.55;;;14.20;90.50;;;;;;4963876;28;20046;-81
2023/09/03 02:12:33;;;;;;;16.83;14.20;;;14.20;90.60;;;;;;4963824;28;20105;-82
2023/09/03 02:14:59;;;;;;;17.52;14.95;;;14.10;90.50;;;;;;4948237;28;20137;-81
2023/09/03 02:17:26;;;;;;;16.42;14.63;;;14.10;90.40;;;;;;4966279;28;20402;-81
2023/09/03 02:19:53;;;;;;;14.15;12.70;;;14.10;90.30;;;;;;4932482;28;20475;-82
2023/09/03 02:22:19;;;;;;;14.80;13.30;;;14.00;90.40;;;;;;4945854;28;20089;-81
2023/09/03 02:24:45;;;;;;;13.88;12.20;;;14.00;90.30;;;;;;4944320;28;20038;-82
2023/09/03 02:27:11;;;;;;;12.65;11.45;;;14.00;90.30;;;;;;4944942;28;20042;-81
2023/09/03 02:29:38;;;;;;;13.45;12.05;;;13.90;90.20;;;;;;4944764;28;20039;-81
2023/09/03 02:32:05;;;;;;;15.90;12.15;;;13.90;90.10;;;;;;4960265;28;20051;-81
2023/09/03 02:34:31;;;;;;;15.05;13.38;;;13.80;90.00;;;;;;4928603;28;20078;-81
2023/09/03 02:36:56;;;;;;;12.60;11.30;;;13.80;90.00;;;;;;4928436;28;20078;-82
2023/09/03 02:39:22;;;;;;;13.40;12.00;;;13.80;90.00;;;;;;4928467;28;20108;-81
2023/09/03 02:41:48;;;;;;;13.73;11.95;;;13.80;90.00;;;;;;4912651;28;20053;-81
2023/09/03 02:44:14;;;;;;;13.45;11.60;;;13.80;89.90;;;;;;4959877;28;20043;-81
2023/09/03 02:46:40;;;;;;;12.73;11.43;;;13.80;89.80;;;;;;4944229;28;20078;-82
2023/09/03 02:49:06;;;;;;;11.95;10.75;;;13.80;89.80;;;;;;4927966;28;20482;-83
2023/09/03 02:51:32;;;;;;;12.15;10.95;;;13.70;89.70;;;;;;4928168;28;20047;-82
2023/09/03 02:53:58;;;;;;;11.85;10.63;;;13.70;89.70;;;;;;4924430;29;20070;-82
2023/09/03 02:56:24;;;;;;;12.18;9.80;;;13.60;89.60;;;;;;4940707;29;20140;-82
2023/09/03 02:58:50;;;;;;;12.90;11.50;;;13.60;89.60;;;;;;4924736;29;20515;-81
2023/09/03 03:01:19;;;;;;;11.85;10.65;;;13.50;89.60;;;;;;4940626;29;20109;-81
2023/09/03 03:03:45;;;;;;;15.07;11.88;;;13.50;89.50;;;;;;4940508;29;20039;-80
2023/09/03 03:06:11;;;;;;;12.95;11.55;;;13.50;89.60;;;;;;4940574;29;20039;-81
2023/09/03 03:08:37;;;;;;;12.50;11.30;;;13.50;89.60;;;;;;4939747;29;20035;-80
2023/09/03 03:11:13;;;;;;;12.98;11.48;;;13.50;89.60;;;;;;4940461;29;20439;-81
2023/09/03 03:13:40;;;;;;;11.98;10.88;;;13.40;89.50;;;;;;4956248;28;20035;-81
2023/09/03 03:16:10;;;;;;;13.65;12.02;;;13.40;89.50;;;;;;4956313;29;20043;-80
2023/09/03 03:18:38;;;;;;;13.35;11.73;;;13.40;89.70;;;;;;4940588;29;20043;-82
2023/09/03 03:21:15;;;;;;;12.15;10.90;;;13.40;89.80;;;;;;4924455;29;20118;-80
2023/09/03 03:23:41;;;;;;;12.70;11.38;;;13.40;89.80;;;;;;4940035;29;20062;-81
2023/09/03 03:26:08;;;;;;;13.85;12.45;;;13.40;89.90;;;;;;4940416;29;20130;-81
2023/09/03 03:28:34;;;;;;;12.25;10.52;;;13.40;89.90;;;;;;4924231;29;20129;-81
2023/09/03 03:31:18;;;;;;;12.10;10.25;;;13.40;89.90;;;;;;4940124;29;20040;-81
2023/09/03 03:33:46;;;;;;;8.25;7.45;;;13.40;89.90;;;;;;4940159;29;20492;-82
2023/09/03 03:36:21;;;;;;;23.23;8.73;;;13.30;90.50;;;;;;4924459;29;20066;-81
2023/09/03 03:38:48;;;;;;;33.90;10.60;;;13.20;90.90;;;;;;4924242;29;20047;-81
2023/09/03 03:41:18;;;;;;;10.50;8.52;;;13.20;90.50;;;;;;4908297;29;20047;-82
2023/09/03 03:43:45;;;;;;;9.50;8.60;;;13.10;90.40;;;;;;4923840;29;20122;-81
2023/09/03 03:46:16;;;;;;;13.82;9.93;;;13.00;90.60;;;;;;4924194;29;20039;-81
2023/09/03 03:48:42;;;;;;;8.57;7.78;;;13.00;90.60;;;;;;4955687;29;20112;-80
2023/09/03 03:51:08;;;;;;;8.68;7.85;;;12.90;90.60;;;;;;4955558;29;20039;-82
2023/09/03 03:53:34;;;;;;;8.82;7.93;;;12.90;90.80;;;;;;4939464;29;20043;-81
2023/09/03 03:56:05;;;;;;;8.32;7.63;;;12.90;91.00;;;;;;4939616;29;20484;-81
2023/09/03 03:58:33;;;;;;;9.07;8.18;;;12.80;90.90;;;;;;4955810;29;20126;-81
2023/09/03 04:00:59;;;;;;;7.70;7.07;;;12.90;91.10;;;;;;4939175;29;20126;-81
2023/09/03 04:03:28;;;;;;;7.30;6.63;;;12.90;91.00;;;;;;4923825;29;20043;-82
2023/09/03 04:05:58;;;;;;;7.25;6.55;;;13.00;90.80;;;;;;4923864;29;20039;-82
2023/09/03 04:08:26;;;;;;;6.75;6.15;;;13.00;90.70;;;;;;4923573;29;20031;-81
2023/09/03 04:10:56;;;;;;;8.13;7.32;;;13.00;90.60;;;;;;4923434;29;20066;-81
2023/09/03 04:13:22;;;;;;;8.43;7.72;;;13.00;90.70;;;;;;4939573;29;20070;-82
2023/09/03 04:15:48;;;;;;;7.43;6.82;;;13.00;90.70;;;;;;4939147;29;20051;-82
2023/09/03 04:18:14;;;;;;;8.25;7.45;;;12.90;90.80;;;;;;4939244;29;20051;-81
2023/09/03 04:20:40;;;;;;;6.20;5.70;;;12.90;90.80;;;;;;4938916;29;20487;-82
2023/09/03 04:23:05;;;;;;;7.00;6.47;;;13.00;90.90;;;;;;4891676;29;20043;-82
2023/09/03 04:25:31;;;;;;;7.00;6.43;;;13.00;91.00;;;;;;4939266;29;20043;-82
2023/09/03 04:27:58;;;;;;;6.78;6.18;;;13.00;91.10;;;;;;4907701;29;20051;-81
2023/09/03 04:30:23;;;;;;;7.00;6.30;;;13.00;91.20;;;;;;4907480;29;20039;-82
2023/09/03 04:32:49;;;;;;;6.97;6.38;;;13.00;91.20;;;;;;4923003;29;20043;-81
2023/09/03 04:35:15;;;;;;;6.35;5.75;;;13.00;91.10;;;;;;4907413;29;20046;-82
2023/09/03 04:37:41;;;;;;;6.53;6.03;;;13.00;91.10;;;;;;4923188;29;20039;-82
2023/09/03 04:40:08;;;;;;;6.55;5.97;;;13.10;91.20;;;;;;4922692;29;20399;-81
2023/09/03 04:42:34;;;;;;;6.80;6.10;;;13.00;91.20;;;;;;4938744;28;20079;-83
2023/09/03 04:45:00;;;;;;;7.07;6.47;;;13.10;91.30;;;;;;4938585;29;20078;-82
2023/09/03 04:47:25;;;;;;;7.68;6.97;;;13.10;91.30;;;;;;4938436;29;20042;-81
2023/09/03 04:49:51;;;;;;;7.88;7.07;;;13.10;91.40;;;;;;4922484;29;20043;-84
2023/09/03 04:52:17;;;;;;;8.23;7.40;;;13.10;91.60;;;;;;4906422;28;20070;-81
2023/09/03 04:54:43;;;;;;;8.77;7.63;;;13.10;91.60;;;;;;4922163;29;20161;-82
2023/09/03 04:57:10;;;;;;;9.73;8.75;;;13.10;91.90;;;;;;4922471;29;20051;-82
2023/09/03 04:59:35;;;;;;;8.85;7.97;;;13.20;91.80;;;;;;4938298;29;20507;-82
2023/09/03 05:02:01;;;;;;;7.53;6.68;;;13.20;91.90;;;;;;4922424;29;20082;-82
2023/09/03 05:04:27;;;;;;;7.53;6.90;;;13.30;92.00;;;;;;4938237;29;20082;-82
2023/09/03 05:06:52;;;;;;;7.55;6.75;;;13.30;92.00;;;;;;4906756;29;20085;-82
2023/09/03 05:09:18;;;;;;;8.88;7.97;;;13.30;91.90;;;;;;4906703;29;20039;-82
2023/09/03 05:11:44;;;;;;;7.18;6.57;;;13.30;91.90;;;;;;4906717;29;20047;-83
2023/09/03 05:14:09;;;;;;;7.65;6.95;;;13.30;92.00;;;;;;4938072;29;20139;-83
2023/09/03 05:16:35;;;;;;;8.60;7.80;;;13.30;92.00;;;;;;4938108;29;20038;-83
2023/09/03 05:19:04;;;;;;;8.93;8.02;;;13.30;91.90;;;;;;4922270;29;20050;-82
2023/09/03 05:21:32;;;;;;;8.85;7.95;;;13.40;91.90;;;;;;4922304;29;20043;-81
2023/09/03 05:23:58;;;;;;;10.48;8.57;;;13.40;91.90;;;;;;4922286;29;20039;-82
2023/09/03 05:26:23;;;;;;;8.68;7.75;;;13.50;92.00;;;;;;4937770;29;20058;-82
2023/09/03 05:28:49;;;;;;;10.77;9.68;;;13.50;92.10;;;;;;4938064;29;20039;-82
2023/09/03 05:31:16;;;;;;;10.40;9.40;;;13.50;92.00;;;;;;4921564;29;20039;-82
2023/09/03 05:33:41;;;;;;;10.00;9.00;;;13.50;92.00;;;;;;4938192;29;20039;-82
2023/09/03 05:36:07;;;;;;;9.93;8.95;;;13.60;92.10;;;;;;4937888;29;20403;-82
2023/09/03 05:38:33;;;;;;;10.40;9.27;;;13.60;92.20;;;;;;4937873;29;20050;-82
2023/09/03 05:40:59;;;;;;;10.10;9.10;;;13.70;92.20;;;;;;4906235;29;20043;-82
2023/09/03 05:43:26;;;;;;;10.60;9.13;;;13.80;92.30;;;;;;4921973;29;20079;-82
2023/09/03 05:45:52;;;;;;;9.00;8.20;;;13.80;92.30;;;;;;4922235;29;20486;-81
2023/09/03 05:48:18;;;;;;;9.27;8.38;;;13.80;92.30;;;;;;4922372;29;20129;-81
2023/09/03 05:50:43;;;;;;;9.80;8.90;;;13.90;92.20;;;;;;4937752;29;20043;-82
2023/09/03 05:53:09;;;;;;;9.38;8.25;;;14.00;92.30;;;;;;4939384;28;20126;-81
2023/09/03 05:55:39;;;;;;;16.58;9.10;;;14.00;92.30;;;;;;4941231;28;20097;-82
2023/09/03 05:58:06;;;;;;;8.60;7.40;;;14.00;92.30;;;;;;4926275;28;20546;-81
2023/09/03 06:00:32;;;;;;;8.80;7.90;;;14.00;92.30;;;;;;4940852;28;20128;-82
2023/09/03 06:02:57;;;;;;;8.18;7.40;;;14.00;92.50;;;;;;4940721;28;20380;-81
2023/09/03 06:05:29;;;;;;;10.40;7.18;;;14.10;92.50;;;;;;4925088;28;20039;-81
2023/09/03 06:07:58;;;;;;;10.20;8.57;;;14.10;92.40;;;;;;4940858;28;20054;-83
2023/09/03 06:10:24;;;;;;;11.23;10.23;;;14.10;92.30;;;;;;4926104;28;20407;-83
2023/09/03 06:12:50;;;;;;;12.95;11.65;;;14.10;92.30;;;;;;4924985;28;20066;-81
2023/09/03 06:15:16;;;;;;;14.63;13.13;;;14.20;92.20;;;;;;4957048;28;20046;-80
2023/09/03 06:17:42;;;;;;;13.10;11.85;;;14.20;92.60;;;;;;4940791;28;20394;-80
2023/09/03 06:20:10;;;;;;;16.08;14.38;;;14.20;93.20;;;;;;4956782;28;20311;-82
2023/09/03 06:22:36;;;;;;;17.05;14.80;;;14.20;93.30;;;;;;4956569;28;20073;-79
2023/09/03 06:25:02;;;;;;;17.90;15.80;;;14.20;93.20;;;;;;4940569;28;20035;-78
2023/09/03 06:27:29;;;;;;;17.67;15.80;;;14.30;93.40;;;;;;4940575;28;20049;-79
2023/09/03 06:29:55;;;;;;;16.95;15.23;;;14.30;93.00;;;;;;4956519;28;20118;-79
2023/09/03 06:32:21;;;;;;;17.45;15.02;;;14.50;92.80;;;;;;4924805;28;20140;-78
2023/09/03 06:34:46;;;;;;;17.52;14.45;;;14.50;92.70;;;;;;4924716;28;20038;-80
2023/09/03 06:37:13;;;;;;;15.43;13.82;;;14.60;92.60;;;;;;4956353;28;20042;-81
2023/09/03 06:39:38;;;;;;;15.50;13.90;;;14.70;93.10;;;;;;4940366;28;20134;-79
2023/09/03 06:42:04;;;;;;;15.57;13.30;;;14.70;92.80;;;;;;4925429;28;20125;-78
2023/09/03 06:44:30;;;;;;;14.82;13.32;;;14.70;93.30;;;;;;4959878;28;20043;-79
2023/09/03 06:46:55;;;;;;;14.43;13.02;;;14.80;93.40;;;;;;4960278;28;20045;-79
2023/09/03 06:49:21;;;;;;;13.27;11.68;;;14.80;93.70;;;;;;4943855;28;20545;-80
2023/09/03 06:51:47;;;;;;;14.63;13.23;;;14.90;93.80;;;;;;4944037;28;20123;-78
2023/09/03 06:54:13;;;;;;;14.70;13.20;;;15.00;94.40;;;;;;4959409;28;20058;-80
2023/09/03 06:56:39;;;;;;;14.60;12.20;;;15.00;94.10;;;;;;4943889;28;20460;-78
2023/09/03 06:59:05;;;;;;;13.52;12.20;;;15.10;94.40;;;;;;4944147;28;20058;-79
2023/09/03 07:01:31;;;;;;;13.32;11.88;;;15.20;93.90;;;;;;4928046;28;20046;-80
2023/09/03 07:03:57;;;;;;;13.00;11.50;;;15.40;93.80;;;;;;4928141;28;20473;-81
2023/09/03 07:06:23;;;;;;;13.55;12.02;;;15.50;93.50;;;;;;4943518;28;20074;-80
2023/09/03 07:08:52;;;;;;;13.35;12.05;;;15.60;93.80;;;;;;4911929;28;20077;-81
2023/09/03 07:11:18;;;;;;;11.70;10.50;;;15.80;93.30;;;;;;4943853;28;20101;-82
2023/09/03 07:13:43;;;;;;;11.55;10.32;;;16.00;93.70;;;;;;4911606;28;20426;-80
2023/09/03 07:16:09;;;;;;;10.20;9.10;;;16.10;92.90;;;;;;4943510;28;20045;-79
2023/09/03 07:18:35;;;;;;;12.48;9.82;;;16.30;92.30;;;;;;4943270;28;20039;-82
2023/09/03 07:21:05;;;;;;;10.45;9.35;;;16.40;91.80;;;;;;4927469;28;20039;-81
2023/09/03 07:23:31;;;;;;;10.30;9.20;;;16.50;91.90;;;;;;4943220;28;20109;-82
2023/09/03 07:26:08;;;;;;;10.25;9.02;;;16.60;91.60;;;;;;4959379;28;20041;-82
2023/09/03 07:28:34;;;;;;;11.98;9.60;;;16.70;91.30;;;;;;4943454;28;20046;-82
2023/09/03 07:31:00;;;;;;;10.70;8.77;;;16.80;90.90;;;;;;4959144;28;20035;-81
2023/09/03 07:33:25;;;;;;;11.35;10.05;;;16.90;91.00;;;;;;4927224;28;20046;-81
2023/09/03 07:35:51;;;;;;;10.70;9.00;;;17.00;90.60;;;;;;4942954;28;20053;-81
2023/09/03 07:38:17;;;;;;;10.05;9.05;;;17.00;90.30;;;;;;4942889;28;20089;-81
2023/09/03 07:40:43;;;;;;;10.60;9.52;;;17.10;90.10;;;;;;4927356;28;20051;-82
2023/09/03 07:43:09;;;;;;;10.70;9.50;;;17.20;90.10;;;;;;4926985;28;20113;-82
2023/09/03 07:45:34;;;;;;;11.50;10.30;;;17.30;90.20;;;;;;4926958;28;20038;-82
2023/09/03 07:48:00;;;;;;;11.73;10.15;;;17.40;90.20;;;;;;4942897;28;20042;-82
2023/09/03 07:50:31;;;;;;;10.90;9.90;;;17.50;89.60;;;;;;4942992;28;20050;-81
2023/09/03 07:52:59;;;;;;;12.25;9.30;;;17.50;89.50;;;;;;4927449;28;20499;-81
2023/09/03 07:55:24;;;;;;;13.38;10.43;;;17.50;89.20;;;;;;4938987;29;20562;-81
2023/09/03 07:57:50;;;;;;;11.05;9.93;;;17.50;89.20;;;;;;4923876;29;20126;-81
2023/09/03 08:00:16;;;;;;;11.52;9.75;;;17.50;89.30;;;;;;4939413;29;20039;-81
2023/09/03 08:02:41;;;;;;;12.85;9.32;;;17.60;89.30;;;;;;4939425;29;20082;-81
2023/09/03 08:05:11;;;;;;;8.73;7.68;;;17.70;89.30;;;;;;4907591;29;20126;-81
2023/09/03 08:07:37;;;;;;;11.70;7.43;;;17.80;89.10;;;;;;4924147;29;20491;-82
2023/09/03 08:10:03;;;;;;;8.73;7.68;;;17.80;88.60;;;;;;4955599;29;20104;-81
2023/09/03 08:12:29;;;;;;;7.95;7.18;;;17.90;88.30;;;;;;4923353;28;20043;-81
2023/09/03 08:14:55;;;;;;;10.57;7.22;;;18.00;87.80;;;;;;4955231;29;20046;-82
2023/09/03 08:17:22;;;;;;;14.75;8.35;;;18.00;86.90;;;;;;4907627;29;20043;-81
2023/09/03 08:19:48;;;;;;;11.38;7.88;;;18.10;86.80;;;;;;4923786;29;20047;-81
2023/09/03 08:22:14;;;;;;;8.52;7.07;;;18.20;86.80;;;;;;4939096;28;20039;-80
2023/09/03 08:24:40;;;;;;;10.02;7.22;;;18.30;86.80;;;;;;4939096;29;20039;-80
2023/09/03 08:27:05;;;;;;;8.40;6.35;;;18.30;86.70;;;;;;4923416;29;20125;-80
2023/09/03 08:29:31;;;;;;;9.05;6.18;;;18.40;86.60;;;;;;4923126;29;20061;-79
2023/09/03 08:31:57;;;;;;;9.27;7.93;;;18.50;86.30;;;;;;4955065;29;20050;-81
2023/09/03 08:34:23;;;;;;;11.75;8.70;;;18.50;85.90;;;;;;4923068;29;20452;-81
2023/09/03 08:36:48;;;;;;;8.57;7.00;;;18.50;85.80;;;;;;4922757;29;20083;-82
2023/09/03 08:39:14;;;;;;;12.02;6.90;;;18.60;85.80;;;;;;4907368;29;20047;-80
2023/09/03 08:41:40;;;;;;;9.13;6.80;;;18.70;85.30;;;;;;4938894;29;20399;-78
2023/09/03 08:44:16;;;;;;;7.68;6.55;;;18.80;85.20;;;;;;4954602;28;20049;-81
2023/09/03 08:46:44;;;;;;;8.45;6.53;;;18.90;84.60;;;;;;4939074;29;20484;-81
2023/09/03 08:49:12;;;;;;;8.75;6.57;;;18.90;84.30;;;;;;4939343;29;20113;-80
2023/09/03 08:51:37;;;;;;;9.23;7.50;;;19.00;84.50;;;;;;4938847;29;20051;-80
2023/09/03 08:54:07;;;;;;;8.73;7.88;;;19.20;84.30;;;;;;4938471;29;20146;-78
2023/09/03 08:56:33;;;;;;;12.85;7.25;;;19.30;83.40;;;;;;4954669;29;20167;-77
2023/09/03 08:58:59;;;;;;;6.18;5.57;;;19.40;83.50;;;;;;4954961;29;20431;-80
2023/09/03 09:01:26;;;;;;;6.18;5.57;;;19.40;83.30;;;;;;4954588;29;20178;-80
2023/09/03 09:03:54;;;;;;;6.60;5.30;;;19.40;82.90;;;;;;4954659;28;20387;-79
2023/09/03 09:06:20;;;;;;;8.98;6.55;;;19.30;82.50;;;;;;4922039;29;20105;-79
2023/09/03 09:08:47;;;;;;;12.35;5.88;;;19.40;82.70;;;;;;4923119;29;20043;-80
2023/09/03 09:11:17;;;;;;;6.78;5.50;;;19.50;82.40;;;;;;4923003;29;20532;-79
2023/09/03 09:13:57;;;;;;;8.77;5.90;;;19.50;82.50;;;;;;4938571;29;20079;-80
2023/09/03 09:16:23;;;;;;;7.32;6.60;;;19.60;82.10;;;;;;4954370;29;20047;-80
2023/09/03 09:18:49;;;;;;;6.45;5.38;;;19.70;81.70;;;;;;4938119;29;20050;-80
2023/09/03 09:21:16;;;;;;;4.70;4.30;;;19.60;81.50;;;;;;4938129;29;20043;-80
2023/09/03 09:23:42;;;;;;;4.18;3.58;;;19.60;81.00;;;;;;4938155;29;20466;-80
2023/09/03 09:26:16;;;;;;;6.72;5.32;;;19.60;80.60;;;;;;4922324;29;20129;-79
2023/09/03 09:29:02;;;;;;;6.43;3.47;;;19.60;79.90;;;;;;4938299;29;20043;-80
2023/09/03 09:31:33;;;;;;;4.18;3.25;;;19.60;79.90;;;;;;4953937;29;20043;-80
2023/09/03 09:34:01;;;;;;;5.30;3.00;;;19.60;80.20;;;;;;4953671;28;20056;-80
2023/09/03 09:36:27;;;;;;;4.65;3.25;;;19.80;79.30;;;;;;4953801;29;20045;-81
2023/09/03 09:39:03;;;;;;;6.63;4.30;;;19.90;77.90;;;;;;4953961;29;20050;-80
2023/09/03 09:41:29;;;;;;;7.35;3.55;;;20.00;78.40;;;;;;4937933;29;20039;-79
2023/09/03 09:43:54;;;;;;;4.43;4.00;;;20.10;78.80;;;;;;4938052;29;20045;-80
2023/09/03 09:46:27;;;;;;;5.43;2.90;;;20.00;78.10;;;;;;4937970;29;20395;-80
2023/09/03 09:48:57;;;;;;;6.63;3.88;;;20.20;78.10;;;;;;4953708;29;20126;-79
2023/09/03 09:51:24;;;;;;;6.88;3.50;;;20.50;77.70;;;;;;4937706;29;20392;-80
2023/09/03 09:54:04;;;;;;;6.60;4.30;;;20.60;77.70;;;;;;4937519;29;20063;-79
2023/09/03 09:56:37;;;;;;;2.92;2.63;;;20.70;76.10;;;;;;4937985;29;20039;-80
2023/09/03 09:59:03;;;;;;;3.05;2.35;;;20.70;76.10;;;;;;4922708;29;20066;-79
2023/09/03 10:01:49;;;;;;;2.67;2.28;;;20.70;75.30;;;;;;4937795;29;20049;-79
2023/09/03 10:04:26;;;;;;;5.55;3.30;;;20.90;75.40;;;;;;4953657;28;20070;-79
2023/09/03 10:06:52;;;;;;;3.53;2.83;;;20.90;74.60;;;;;;4937806;29;20035;-79
2023/09/03 10:09:19;;;;;;;3.72;2.55;;;21.10;74.40;;;;;;4937586;29;20047;-80
2023/09/03 10:11:44;;;;;;;6.72;2.67;;;21.20;74.50;;;;;;4937854;29;20043;-80
2023/09/03 10:14:10;;;;;;;3.22;2.63;;;21.20;73.90;;;;;;4921642;29;20459;-80
2023/09/03 10:16:36;;;;;;;3.83;2.53;;;21.10;73.70;;;;;;4953902;28;20050;-80
2023/09/03 10:19:06;;;;;;;5.70;2.92;;;21.10;72.70;;;;;;4941736;29;20391;-79
2023/09/03 10:21:33;;;;;;;4.85;2.90;;;21.30;72.70;;;;;;4910363;29;20043;-80
2023/09/03 10:24:00;;;;;;;4.75;2.78;;;21.40;71.30;;;;;;4941255;29;20542;-79
2023/09/03 10:26:37;;;;;;;4.20;2.40;;;21.50;71.50;;;;;;4957326;29;20079;-80
2023/09/03 10:29:05;;;;;;;2.95;2.17;;;21.60;71.50;;;;;;4941395;29;20055;-80
2023/09/03 10:31:35;;;;;;;3.30;2.30;;;21.80;70.00;;;;;;4956929;29;20039;-80
2023/09/03 10:34:00;;;;;;;5.00;2.80;;;21.90;69.50;;;;;;4940916;29;20039;-79
2023/09/03 10:36:26;;;;;;;4.63;2.55;;;22.10;70.00;;;;;;4941230;29;20098;-80
2023/09/03 10:38:52;;;;;;;3.97;2.35;;;22.30;70.10;;;;;;4957245;29;20031;-80
2023/09/03 10:41:23;;;;;;;3.60;2.17;;;22.40;70.30;;;;;;4925440;29;20051;-80
2023/09/03 10:43:53;;;;;;;2.75;1.92;;;22.40;69.00;;;;;;4940929;29;20047;-80
2023/09/03 10:46:22;;;;;;;5.10;2.10;;;22.40;68.20;;;;;;4909927;29;20047;-80
2023/09/03 10:48:55;;;;;;;2.67;1.90;;;22.30;68.00;;;;;;4941225;29;20061;-79
2023/09/03 10:51:32;;;;;;;;;;;22.30;68.70;;;;;;4957066;29;20043;-79
2023/09/03 10:54:20;;;;;;;2.30;1.73;;;22.30;68.70;;;;;;4956395;28;19922;-79
2023/09/03 10:57:05;;;;;;;3.97;1.95;;;22.30;68.90;;;;;;4956699;29;20047;-79
2023/09/03 11:00:05;;;;;;;6.70;2.30;;;22.40;68.20;;;;;;4956519;29;20051;-79
2023/09/03 11:02:33;;;;;;;3.33;1.63;;;22.40;67.70;;;;;;4936168;28;20055;-79
2023/09/03 11:05:22;;;;;;;4.03;1.77;;;22.50;66.70;;;;;;4956477;29;20051;-79
2023/09/03 11:08:31;;;;;;;4.75;2.05;;;22.60;66.40;;;;;;4956428;29;20043;-79
2023/09/03 11:10:58;;;;;;;4.40;1.67;;;22.70;66.70;;;;;;4956524;29;20495;-79
2023/09/03 11:13:24;;;;;;;4.13;1.63;;;22.70;66.90;;;;;;4940576;29;20043;-79
2023/09/03 11:15:57;;;;;;;4.55;1.40;;;22.80;66.00;;;;;;4956451;29;20039;-79
2023/09/03 11:18:27;;;;;;;3.78;1.80;;;22.80;66.80;;;;;;4956296;29;20110;-79
2023/09/03 11:20:55;;;;;;;3.00;1.67;;;22.70;66.30;;;;;;4956177;29;20043;-79
2023/09/03 11:23:22;;;;;;;1.40;1.30;;;22.70;66.40;;;;;;4955987;28;20470;-79
2023/09/03 11:25:47;;;;;;;4.32;1.67;;;22.80;66.40;;;;;;4940037;29;20039;-79
2023/09/03 11:28:14;;;;;;;2.80;1.40;;;22.90;66.60;;;;;;4924108;28;20468;-79
2023/09/03 11:30:41;;;;;;;3.33;1.90;;;23.00;66.00;;;;;;4955644;29;20043;-79
2023/09/03 11:33:10;;;;;;;3.90;1.30;;;23.10;65.40;;;;;;4939853;29;20038;-80
2023/09/03 11:35:46;;;;;;;2.22;1.42;;;23.20;64.80;;;;;;4940540;29;20043;-79
2023/09/03 11:38:12;;;;;;;2.72;1.48;;;23.30;63.70;;;;;;4955608;29;20043;-79
2023/09/03 11:40:40;;;;;;;2.25;1.30;;;23.50;64.30;;;;;;4940164;29;20050;-80
2023/09/03 11:43:09;;;;;;;2.53;1.23;;;23.70;64.50;;;;;;4955709;28;20048;-79
2023/09/03 11:45:36;;;;;;;3.08;1.27;;;23.80;63.70;;;;;;4955767;29;20111;-80
2023/09/03 11:48:08;;;;;;;3.90;1.80;;;24.00;63.50;;;;;;4924327;29;20040;-79
2023/09/03 11:50:35;;;;;;;3.47;1.52;;;24.00;62.80;;;;;;4939621;29;20109;-79
2023/09/03 11:53:04;;;;;;;2.97;1.45;;;24.00;62.20;;;;;;4955614;28;20054;-79
2023/09/03 11:55:34;;;;;;;3.10;1.35;;;24.10;62.20;;;;;;4955363;29;20059;-79
2023/09/03 11:58:01;;;;;;;3.85;1.50;;;24.10;62.30;;;;;;4955504;29;20051;-79
2023/09/03 12:00:28;;;;;;;3.42;1.50;;;24.00;62.80;;;;;;4955522;29;20496;-79
2023/09/03 12:02:55;;;;;;;4.70;1.98;;;23.90;63.30;;;;;;4939456;29;20439;-80
2023/09/03 12:05:21;;;;;;;2.00;1.35;;;24.00;62.20;;;;;;4923522;29;20039;-79
2023/09/03 12:07:47;;;;;;;3.50;1.60;;;24.20;62.80;;;;;;4955377;29;20094;-79
2023/09/03 12:10:20;;;;;;;4.00;1.60;;;24.40;62.40;;;;;;4955462;29;20043;-79
2023/09/03 12:12:46;;;;;;;3.40;1.50;;;24.70;61.90;;;;;;4955636;28;20399;-81
2023/09/03 12:15:23;;;;;;;2.90;1.60;;;24.90;61.50;;;;;;4955286;29;20047;-80
2023/09/03 12:17:49;;;;;;;3.20;1.40;;;25.00;60.50;;;;;;4939291;29;20039;-81
2023/09/03 12:20:45;;;;;;;1.85;1.42;;;24.90;60.50;;;;;;4939625;29;20185;-80
2023/09/03 12:23:15;;;;;;;3.55;1.70;;;24.90;60.30;;;;;;4943053;28;20388;-80
2023/09/03 12:25:42;;;;;;;2.58;1.65;;;25.00;60.50;;;;;;4955224;29;20097;-81
2023/09/03 12:28:09;;;;;;;1.63;1.23;;;25.10;60.50;;;;;;4955532;29;20439;-81
2023/09/03 12:31:01;;;;;;;4.50;2.58;;;25.10;60.50;;;;;;4939101;29;20038;-80
2023/09/03 12:33:47;;;;;;;5.72;1.98;;;25.20;59.80;;;;;;4955215;28;20047;-82
2023/09/03 12:36:18;;;;;;;3.22;1.35;;;25.10;58.90;;;;;;4938943;29;20043;-80
2023/09/03 12:38:53;;;;;;;3.65;1.45;;;25.00;58.50;;;;;;4938874;29;20050;-80
2023/09/03 12:41:20;;;;;;;3.40;1.38;;;25.10;57.90;;;;;;4939036;29;20509;-81
2023/09/03 12:43:45;;;;;;;1.85;1.10;;;24.90;58.00;;;;;;4954941;28;20385;-80
2023/09/03 12:46:11;;;;;;;2.70;0.90;;;24.70;57.90;;;;;;4923454;29;20047;-81